Time;durP1;ratioP1;P1;durP2;ratioP2;P2;SDS_P1;SDS_P2;PMS_P1;PMS_P2;Temp;Humidity;BMP_temperature;BMP_pressure;BME280_temperature;BME280_humidity;BME280_pressure;Samples;Min_cycle;Max_cycle;Signal;HPM_P1;HPM_P2
2022/08/15 00:01:30;;;;;;;22.45;15.70;;;17.50;99.90;;;;;;5091802;28;20378;-74
2022/08/15 00:03:58;;;;;;;22.30;15.18;;;17.50;99.90;;;;;;5093192;28;20031;-73
2022/08/15 00:06:35;;;;;;;24.20;16.08;;;17.50;99.90;;;;;;5093184;28;20367;-73
2022/08/15 00:09:05;;;;;;;19.95;13.90;;;17.50;99.90;;;;;;5091970;28;20363;-73
2022/08/15 00:11:38;;;;;;;18.00;13.75;;;17.50;99.90;;;;;;5093190;28;20016;-73
2022/08/15 00:14:23;;;;;;;19.55;14.73;;;17.50;99.90;;;;;;5093786;28;20025;-73
2022/08/15 00:16:49;;;;;;;19.63;14.85;;;17.50;99.90;;;;;;5091844;28;20039;-73
2022/08/15 00:19:24;;;;;;;20.50;14.80;;;17.50;99.90;;;;;;5093075;28;20036;-73
2022/08/15 00:21:54;;;;;;;22.92;16.05;;;17.50;99.90;;;;;;5093255;28;20016;-73
2022/08/15 00:24:23;;;;;;;23.83;16.50;;;17.50;99.90;;;;;;5093176;28;20026;-74
2022/08/15 00:26:50;;;;;;;21.27;15.52;;;17.50;99.90;;;;;;5093096;28;20028;-74
2022/08/15 00:29:19;;;;;;;22.02;15.48;;;17.40;99.90;;;;;;5093337;28;20028;-73
2022/08/15 00:31:45;;;;;;;18.60;15.05;;;17.40;99.90;;;;;;5091851;28;20066;-73
2022/08/15 00:34:12;;;;;;;25.30;16.83;;;17.40;99.90;;;;;;5092909;28;20500;-73
2022/08/15 00:36:38;;;;;;;19.10;14.63;;;17.40;99.90;;;;;;5093216;28;20020;-74
2022/08/15 00:39:05;;;;;;;21.10;14.75;;;17.40;99.90;;;;;;5092925;28;20055;-74
2022/08/15 00:41:41;;;;;;;21.83;14.93;;;17.40;99.90;;;;;;5091491;28;20020;-74
2022/08/15 00:44:15;;;;;;;22.77;16.60;;;17.30;99.90;;;;;;5093134;28;20020;-73
2022/08/15 00:46:44;;;;;;;23.90;17.30;;;17.30;99.90;;;;;;5093219;28;20032;-74
2022/08/15 00:49:10;;;;;;;28.25;18.13;;;17.20;99.90;;;;;;5092757;28;20048;-73
2022/08/15 00:51:59;;;;;;;28.65;18.58;;;17.20;99.90;;;;;;5091571;28;20538;-73
2022/08/15 00:54:46;;;;;;;23.70;16.38;;;17.20;99.90;;;;;;5092791;28;20161;-73
2022/08/15 00:57:25;;;;;;;21.52;16.50;;;17.20;99.90;;;;;;5095333;28;20066;-74
2022/08/15 00:59:55;;;;;;;23.88;17.60;;;17.20;99.90;;;;;;5096503;28;20039;-74
2022/08/15 01:02:24;;;;;;;28.20;18.95;;;17.20;99.90;;;;;;5096233;28;20024;-74
2022/08/15 01:04:50;;;;;;;26.40;18.13;;;17.10;99.90;;;;;;5095407;28;20024;-73
2022/08/15 01:07:17;;;;;;;26.23;17.65;;;17.10;99.90;;;;;;5096591;28;20020;-73
2022/08/15 01:09:43;;;;;;;27.35;18.98;;;17.10;99.90;;;;;;5096509;28;20093;-74
2022/08/15 01:12:20;;;;;;;29.35;19.70;;;17.10;99.90;;;;;;5096444;28;20063;-73
2022/08/15 01:14:49;;;;;;;27.35;19.88;;;17.10;99.90;;;;;;5095143;28;20039;-74
2022/08/15 01:17:16;;;;;;;28.42;19.95;;;17.10;99.90;;;;;;5096286;28;20390;-73
2022/08/15 01:19:50;;;;;;;28.70;19.95;;;17.10;99.90;;;;;;5095913;28;20110;-74
2022/08/15 01:22:36;;;;;;;27.30;19.52;;;17.10;99.90;;;;;;5096156;28;20078;-74
2022/08/15 01:25:21;;;;;;;34.08;21.42;;;17.20;99.90;;;;;;5095897;28;20089;-74
2022/08/15 01:27:56;;;;;;;33.10;22.83;;;17.20;99.90;;;;;;5095424;28;20108;-73
2022/08/15 01:30:27;;;;;;;34.03;23.52;;;17.20;99.90;;;;;;5096280;28;20355;-73
2022/08/15 01:32:55;;;;;;;32.28;21.30;;;17.20;99.90;;;;;;5094534;28;20111;-74
2022/08/15 01:35:21;;;;;;;31.08;22.38;;;17.20;99.90;;;;;;5095868;28;20016;-73
2022/08/15 01:37:50;;;;;;;29.95;21.77;;;17.30;99.90;;;;;;5094604;28;20012;-73
2022/08/15 01:40:44;;;;;;;30.42;20.30;;;17.20;99.90;;;;;;5095829;28;20026;-73
2022/08/15 01:43:12;;;;;;;28.90;20.77;;;17.20;99.90;;;;;;5094357;28;20499;-73
2022/08/15 01:45:41;;;;;;;28.27;20.83;;;17.30;99.90;;;;;;5095790;28;20028;-73
2022/08/15 01:48:24;;;;;;;26.70;19.52;;;17.30;99.90;;;;;;5095672;28;20480;-73
2022/08/15 01:50:53;;;;;;;31.25;20.65;;;17.30;99.90;;;;;;5095644;28;20020;-73
2022/08/15 01:53:30;;;;;;;27.63;19.30;;;17.20;99.90;;;;;;5095368;28;20020;-73
2022/08/15 01:56:03;;;;;;;33.55;21.70;;;17.20;99.90;;;;;;5095483;28;20555;-73
2022/08/15 01:58:30;;;;;;;27.50;20.25;;;17.20;99.90;;;;;;5095302;28;20081;-74
2022/08/15 02:01:02;;;;;;;31.05;22.90;;;17.20;99.90;;;;;;5095465;28;20012;-74
2022/08/15 02:03:34;;;;;;;27.02;19.98;;;17.10;99.90;;;;;;5095268;28;20032;-73
2022/08/15 02:06:04;;;;;;;;;;;17.00;99.90;;;;;;5094695;28;20024;-73
2022/08/15 02:08:30;;;;;;;30.02;19.63;;;17.00;99.90;;;;;;5093542;28;20331;-74
2022/08/15 02:10:56;;;;;;;29.55;21.08;;;17.00;99.90;;;;;;5095310;28;20050;-74
2022/08/15 02:13:23;;;;;;;28.55;20.23;;;17.00;99.90;;;;;;5093776;28;20024;-73
2022/08/15 02:15:50;;;;;;;34.20;21.02;;;16.90;99.90;;;;;;5093850;28;20028;-73
2022/08/15 02:18:15;;;;;;;34.25;20.73;;;16.90;99.90;;;;;;5095043;28;20077;-73
2022/08/15 02:20:41;;;;;;;29.45;21.27;;;16.90;99.90;;;;;;5093699;28;20016;-75
2022/08/15 02:23:07;;;;;;;33.33;22.00;;;16.90;99.90;;;;;;5093614;28;20032;-73
2022/08/15 02:25:33;;;;;;;27.77;18.85;;;16.90;99.90;;;;;;5094772;28;20063;-73
2022/08/15 02:27:58;;;;;;;26.00;19.40;;;16.90;99.90;;;;;;5093524;28;20038;-73
2022/08/15 02:30:26;;;;;;;26.52;19.27;;;16.90;99.90;;;;;;5094882;28;20046;-74
2022/08/15 02:32:52;;;;;;;27.67;20.55;;;16.90;99.90;;;;;;5094682;28;20036;-74
2022/08/15 02:35:18;;;;;;;27.77;20.92;;;16.80;99.90;;;;;;5094663;28;20019;-75
2022/08/15 02:37:44;;;;;;;27.15;20.58;;;16.80;99.90;;;;;;5094654;28;20108;-74
2022/08/15 02:40:12;;;;;;;29.13;18.67;;;16.80;99.90;;;;;;5094532;28;20035;-74
2022/08/15 02:42:39;;;;;;;26.65;19.75;;;16.70;99.90;;;;;;5094766;28;20020;-74
2022/08/15 02:45:10;;;;;;;27.42;18.83;;;16.70;99.90;;;;;;5094550;28;20050;-75
2022/08/15 02:47:43;;;;;;;26.00;19.23;;;16.70;99.90;;;;;;5094532;28;20024;-74
2022/08/15 02:50:10;;;;;;;26.88;19.15;;;16.60;99.90;;;;;;5094787;28;20255;-73
2022/08/15 02:52:44;;;;;;;22.65;17.15;;;16.60;99.90;;;;;;5094588;28;20428;-73
2022/08/15 02:55:11;;;;;;;24.33;17.27;;;16.60;99.90;;;;;;5093012;28;20470;-73
2022/08/15 02:57:38;;;;;;;25.85;19.15;;;16.50;99.90;;;;;;5093179;28;20024;-74
2022/08/15 03:00:07;;;;;;;24.55;17.45;;;16.50;99.90;;;;;;5092889;28;20431;-74
2022/08/15 03:02:50;;;;;;;26.27;17.80;;;16.50;99.90;;;;;;5094059;28;20435;-73
2022/08/15 03:05:16;;;;;;;;;;;16.40;99.90;;;;;;5093422;28;20073;-73
2022/08/15 03:07:41;;;;;;;23.42;17.88;;;16.40;99.90;;;;;;5094081;28;19904;-74
2022/08/15 03:10:07;;;;;;;23.48;17.00;;;16.40;99.90;;;;;;5094056;28;20501;-73
2022/08/15 03:12:33;;;;;;;22.88;17.27;;;16.40;99.90;;;;;;5093841;28;20435;-74
2022/08/15 03:15:01;;;;;;;23.50;17.77;;;16.40;99.90;;;;;;5093980;28;20031;-73
2022/08/15 03:17:26;;;;;;;24.20;17.10;;;16.30;99.90;;;;;;5093846;28;20031;-74
2022/08/15 03:19:53;;;;;;;23.33;17.35;;;16.30;99.90;;;;;;5093355;28;20028;-73
2022/08/15 03:22:19;;;;;;;26.25;18.02;;;16.30;99.90;;;;;;5093796;28;20020;-73
2022/08/15 03:24:45;;;;;;;23.05;17.33;;;16.20;99.90;;;;;;5093689;28;20027;-74
2022/08/15 03:27:10;;;;;;;22.95;18.00;;;16.20;99.90;;;;;;5093653;28;20019;-73
2022/08/15 03:29:36;;;;;;;22.50;16.77;;;16.20;99.90;;;;;;5092343;28;20107;-74
2022/08/15 03:32:12;;;;;;;21.75;16.45;;;16.20;99.90;;;;;;5093937;28;20389;-73
2022/08/15 03:34:38;;;;;;;25.20;19.08;;;16.20;99.90;;;;;;5092308;28;20426;-74
2022/08/15 03:37:03;;;;;;;27.70;18.25;;;16.10;99.90;;;;;;5093676;28;20059;-73
2022/08/15 03:39:29;;;;;;;25.35;18.35;;;16.10;99.90;;;;;;5093517;28;20464;-73
2022/08/15 03:41:55;;;;;;;23.45;15.73;;;16.10;99.90;;;;;;5093536;28;20028;-74
2022/08/15 03:44:23;;;;;;;20.40;14.75;;;16.10;99.90;;;;;;5092170;28;20024;-73
2022/08/15 03:46:48;;;;;;;19.85;14.98;;;16.00;99.90;;;;;;5093503;28;20103;-74
2022/08/15 03:49:15;;;;;;;19.95;14.73;;;16.00;99.90;;;;;;5093476;28;20518;-74
2022/08/15 03:51:41;;;;;;;25.33;17.88;;;16.00;99.90;;;;;;5093382;28;20098;-74
2022/08/15 03:54:07;;;;;;;24.95;17.70;;;15.90;99.90;;;;;;5093262;28;20043;-74
2022/08/15 03:56:35;;;;;;;29.13;20.42;;;15.80;99.90;;;;;;5093368;28;20382;-73
2022/08/15 03:59:01;;;;;;;28.95;18.65;;;15.80;99.90;;;;;;5093517;28;20139;-74
2022/08/15 04:01:30;;;;;;;29.70;19.67;;;15.80;99.90;;;;;;5093354;28;20020;-73
2022/08/15 04:03:56;;;;;;;28.00;21.00;;;15.90;99.90;;;;;;5093515;28;20024;-73
2022/08/15 04:06:24;;;;;;;30.35;21.75;;;15.90;99.90;;;;;;5093419;28;20024;-74
2022/08/15 04:08:51;;;;;;;33.08;22.30;;;16.00;99.90;;;;;;5091908;28;20027;-74
2022/08/15 04:11:18;;;;;;;28.23;21.83;;;16.10;99.90;;;;;;5093309;28;20020;-74
2022/08/15 04:13:45;;;;;;;34.55;23.52;;;16.30;99.90;;;;;;5093338;28;20039;-73
2022/08/15 04:16:13;;;;;;;30.58;23.23;;;16.40;99.90;;;;;;5093227;28;20099;-73
2022/08/15 04:18:39;;;;;;;29.98;22.27;;;16.50;99.90;;;;;;5093129;28;20480;-73
2022/08/15 04:21:08;;;;;;;33.58;24.00;;;16.50;99.90;;;;;;5092052;28;20103;-75
2022/08/15 04:23:34;;;;;;;31.05;21.58;;;16.60;99.90;;;;;;5093215;28;20039;-74
2022/08/15 04:26:01;;;;;;;28.73;20.70;;;16.60;99.90;;;;;;5092747;28;20028;-74
2022/08/15 04:28:31;;;;;;;32.38;23.63;;;16.60;99.90;;;;;;5093113;28;20027;-74
2022/08/15 04:30:58;;;;;;;29.02;21.85;;;16.70;99.90;;;;;;5095632;28;20031;-74
2022/08/15 04:33:29;;;;;;;28.35;22.30;;;16.80;99.90;;;;;;5097069;28;20020;-73
2022/08/15 04:36:09;;;;;;;28.85;20.83;;;17.00;99.90;;;;;;5097420;28;20020;-74
2022/08/15 04:38:36;;;;;;;28.73;20.00;;;17.00;99.90;;;;;;5095711;28;20035;-74
2022/08/15 04:41:04;;;;;;;28.73;19.77;;;17.10;99.90;;;;;;5095730;28;20020;-72
2022/08/15 04:43:31;;;;;;;28.40;19.90;;;17.20;99.90;;;;;;5096966;28;20058;-73
2022/08/15 04:45:58;;;;;;;26.75;18.17;;;17.30;99.90;;;;;;5096929;28;20020;-74
2022/08/15 04:48:25;;;;;;;27.10;18.60;;;17.40;99.90;;;;;;5096729;28;20138;-74
2022/08/15 04:50:52;;;;;;;26.75;19.73;;;17.50;99.90;;;;;;5096759;28;20020;-74
2022/08/15 04:53:21;;;;;;;27.13;18.70;;;17.60;99.90;;;;;;5096791;28;20080;-73
2022/08/15 04:55:48;;;;;;;27.75;20.08;;;17.70;99.90;;;;;;5095296;28;20367;-74
2022/08/15 04:58:15;;;;;;;27.50;19.08;;;17.90;99.90;;;;;;5096686;28;20374;-74
2022/08/15 05:00:47;;;;;;;28.60;18.48;;;17.90;99.90;;;;;;5096538;28;20386;-73
2022/08/15 05:03:14;;;;;;;29.50;19.33;;;18.00;99.90;;;;;;5096561;28;20020;-73
2022/08/15 05:05:44;;;;;;;28.65;19.85;;;18.10;99.90;;;;;;5095201;28;20024;-73
2022/08/15 05:08:10;;;;;;;26.45;19.95;;;18.10;99.90;;;;;;5096724;28;20443;-73
2022/08/15 05:10:36;;;;;;;28.17;19.73;;;18.20;99.90;;;;;;5096577;28;20100;-73
2022/08/15 05:13:16;;;;;;;32.33;21.73;;;18.10;99.90;;;;;;5096429;28;20043;-73
2022/08/15 05:15:44;;;;;;;34.28;22.35;;;18.10;99.90;;;;;;5096316;28;20377;-74
2022/08/15 05:18:12;;;;;;;33.42;21.80;;;18.10;99.90;;;;;;5096381;28;20024;-74
2022/08/15 05:20:39;;;;;;;34.60;22.25;;;18.10;99.90;;;;;;5096065;28;20028;-74
2022/08/15 05:23:11;;;;;;;39.55;24.23;;;18.00;99.90;;;;;;5095892;28;20046;-74
2022/08/15 05:25:39;;;;;;;38.28;23.55;;;17.90;99.90;;;;;;5095966;28;20490;-74
2022/08/15 05:28:06;;;;;;;37.08;24.50;;;17.90;99.90;;;;;;5095881;28;20034;-74
2022/08/15 05:30:32;;;;;;;42.25;26.25;;;17.90;99.90;;;;;;5095744;28;20039;-74
2022/08/15 05:33:27;;;;;;;40.72;24.02;;;17.90;99.90;;;;;;5095471;28;20024;-73
2022/08/15 05:35:56;;;;;;;46.10;25.60;;;17.90;99.90;;;;;;5069739;28;20035;-74
2022/08/15 05:38:44;;;;;;;45.67;25.60;;;18.00;99.90;;;;;;5089352;28;20481;-74
2022/08/15 05:41:24;;;;;;;47.10;26.23;;;18.00;99.90;;;;;;5093980;28;20549;-74
2022/08/15 05:44:08;;;;;;;46.42;26.27;;;18.00;99.90;;;;;;5093087;28;20023;-74
2022/08/15 05:46:48;;;;;;;53.70;27.10;;;17.90;99.90;;;;;;5095493;28;20028;-74
2022/08/15 05:49:26;;;;;;;42.38;24.27;;;18.00;99.90;;;;;;5095115;28;20039;-74
2022/08/15 05:52:15;;;;;;;44.47;23.33;;;18.00;99.90;;;;;;5093428;28;20027;-74
2022/08/15 05:55:02;;;;;;;48.83;22.83;;;18.00;99.90;;;;;;5089168;28;20520;-73
2022/08/15 05:57:33;;;;;;;44.63;22.60;;;18.10;99.90;;;;;;5095349;28;20020;-74
2022/08/15 06:00:05;;;;;;;44.30;22.60;;;18.10;99.90;;;;;;5093477;28;20039;-72
2022/08/15 06:02:39;;;;;;;41.03;22.17;;;18.20;99.90;;;;;;5094193;28;20021;-73
2022/08/15 06:05:15;;;;;;;41.42;22.77;;;18.30;99.90;;;;;;5076939;28;20106;-73
2022/08/15 06:07:46;;;;;;;35.75;23.65;;;18.30;99.90;;;;;;5093631;28;20069;-73
2022/08/15 06:10:26;;;;;;;37.72;23.85;;;18.40;99.90;;;;;;5094601;28;20055;-74
2022/08/15 06:13:14;;;;;;;40.85;22.63;;;18.40;99.90;;;;;;5095082;28;20024;-74
2022/08/15 06:15:47;;;;;;;35.22;24.10;;;18.50;99.90;;;;;;5094624;28;20036;-74
2022/08/15 06:18:17;;;;;;;34.60;24.17;;;18.60;99.90;;;;;;5094240;28;20020;-73
2022/08/15 06:21:00;;;;;;;40.50;24.42;;;18.60;99.90;;;;;;5094100;28;20076;-73
2022/08/15 06:23:34;;;;;;;41.08;25.65;;;18.60;99.90;;;;;;5092032;28;20016;-73
2022/08/15 06:26:24;;;;;;;39.40;23.48;;;18.70;99.90;;;;;;5093995;28;20028;-73
2022/08/15 06:29:24;;;;;;;32.47;22.98;;;18.80;99.90;;;;;;5092430;28;20055;-73
2022/08/15 06:32:16;;;;;;;27.58;20.25;;;18.90;99.90;;;;;;5094428;28;20063;-74
2022/08/15 06:35:10;;;;;;;28.58;21.73;;;19.00;99.90;;;;;;5088068;28;20482;-74
2022/08/15 06:37:47;;;;;;;30.42;21.65;;;19.10;99.90;;;;;;5094509;28;20020;-75
2022/08/15 06:40:25;;;;;;;31.15;21.25;;;19.20;99.90;;;;;;5094241;28;20047;-74
2022/08/15 06:42:50;;;;;;;29.95;20.42;;;19.20;99.90;;;;;;5094392;28;20032;-74
2022/08/15 06:45:30;;;;;;;29.98;21.38;;;19.20;99.90;;;;;;5093327;28;20031;-74
2022/08/15 06:48:07;;;;;;;34.17;22.98;;;19.30;99.90;;;;;;5094574;28;20024;-74
2022/08/15 06:50:47;;;;;;;33.83;23.25;;;19.30;99.90;;;;;;5091039;28;20031;-74
2022/08/15 06:53:28;;;;;;;46.38;24.98;;;19.40;99.90;;;;;;5092620;28;20020;-73
2022/08/15 06:56:10;;;;;;;37.35;24.17;;;19.40;99.90;;;;;;5094159;28;20035;-75
2022/08/15 06:58:50;;;;;;;39.92;26.60;;;19.60;99.90;;;;;;5087297;28;20068;-75
2022/08/15 07:01:24;;;;;;;35.85;25.05;;;19.80;99.90;;;;;;5091472;28;20095;-74
2022/08/15 07:03:50;;;;;;;38.13;25.15;;;20.00;99.90;;;;;;5092602;28;20032;-76
2022/08/15 07:06:20;;;;;;;32.83;22.45;;;20.10;99.90;;;;;;5093072;28;20423;-74
2022/08/15 07:08:57;;;;;;;29.25;20.70;;;20.20;99.90;;;;;;5091446;28;20047;-74
2022/08/15 07:11:38;;;;;;;32.20;21.88;;;20.30;99.90;;;;;;5088277;28;20102;-74
2022/08/15 07:14:26;;;;;;;34.03;21.43;;;20.40;99.90;;;;;;5092306;28;20075;-74
2022/08/15 07:17:00;;;;;;;37.30;23.25;;;20.60;99.90;;;;;;5088011;28;20067;-76
2022/08/15 07:19:26;;;;;;;30.15;20.45;;;20.60;99.90;;;;;;5091652;28;20040;-75
2022/08/15 07:21:52;;;;;;;29.38;20.48;;;20.70;99.90;;;;;;5092180;28;20084;-75
2022/08/15 07:24:18;;;;;;;30.08;20.83;;;20.70;99.90;;;;;;5091735;28;20020;-75
2022/08/15 07:26:46;;;;;;;31.05;20.42;;;20.80;99.90;;;;;;5089429;28;20028;-74
2022/08/15 07:29:41;;;;;;;30.10;20.17;;;21.00;99.90;;;;;;5092464;28;20102;-74
2022/08/15 07:32:15;;;;;;;28.13;19.15;;;21.20;99.90;;;;;;5092234;28;20040;-74
2022/08/15 07:34:58;;;;;;;25.25;17.88;;;21.40;99.90;;;;;;5093712;28;20024;-74
2022/08/15 07:37:29;;;;;;;25.02;18.05;;;21.50;99.90;;;;;;5092210;28;20024;-74
2022/08/15 07:40:03;;;;;;;26.00;17.92;;;21.70;99.90;;;;;;5090884;28;20122;-74
2022/08/15 07:42:38;;;;;;;27.15;19.08;;;21.90;99.90;;;;;;5091550;28;20109;-74
2022/08/15 07:45:08;;;;;;;24.05;17.00;;;22.20;99.90;;;;;;5091912;28;20027;-74
2022/08/15 07:47:35;;;;;;;23.15;17.50;;;22.30;99.90;;;;;;5092300;28;20027;-75
2022/08/15 07:50:05;;;;;;;20.10;16.25;;;22.40;99.90;;;;;;5092346;28;20181;-75
2022/08/15 07:52:32;;;;;;;23.00;15.98;;;22.50;99.90;;;;;;5090183;28;20585;-75
2022/08/15 07:55:16;;;;;;;24.40;17.55;;;22.50;99.90;;;;;;5091844;28;20020;-74
2022/08/15 07:57:57;;;;;;;21.38;15.52;;;22.40;99.90;;;;;;5093314;28;20438;-74
2022/08/15 08:00:27;;;;;;;23.33;15.93;;;22.60;99.90;;;;;;5093205;28;20032;-75
2022/08/15 08:03:02;;;;;;;24.67;16.10;;;22.50;99.90;;;;;;5091873;28;20488;-75
2022/08/15 08:05:33;;;;;;;20.88;16.40;;;22.40;99.90;;;;;;5096745;28;20086;-74
2022/08/15 08:08:05;;;;;;;19.85;15.40;;;22.40;99.90;;;;;;5099870;28;20024;-74
2022/08/15 08:10:53;;;;;;;22.27;14.85;;;22.70;99.90;;;;;;5098873;28;20040;-75
2022/08/15 08:13:54;;;;;;;18.50;15.02;;;22.80;99.90;;;;;;5099974;28;20024;-76
2022/08/15 08:16:51;;;;;;;20.00;15.55;;;23.00;99.90;;;;;;5094209;28;20047;-74
2022/08/15 08:19:28;;;;;;;19.35;14.68;;;23.00;99.90;;;;;;5091064;28;20060;-75
2022/08/15 08:22:11;;;;;;;22.08;15.43;;;23.00;99.90;;;;;;5099500;28;20512;-75
2022/08/15 08:25:01;;;;;;;20.90;15.85;;;22.90;99.90;;;;;;5099924;28;20035;-75
2022/08/15 08:27:45;;;;;;;21.17;15.05;;;23.00;99.90;;;;;;5099685;28;20117;-75
2022/08/15 08:30:18;;;;;;;18.90;15.02;;;23.20;99.90;;;;;;5099984;28;20028;-75
2022/08/15 08:32:47;;;;;;;19.17;14.63;;;23.40;99.90;;;;;;5099682;28;20028;-74
2022/08/15 08:35:13;;;;;;;17.13;14.63;;;23.40;99.90;;;;;;5099769;28;20032;-76
2022/08/15 08:38:02;;;;;;;17.33;12.55;;;23.70;99.90;;;;;;5099662;28;20519;-75
2022/08/15 08:44:08;;;;;;;15.77;12.15;;;23.90;99.90;;;;;;5099522;28;20035;-75
2022/08/15 08:46:48;;;;;;;16.42;11.70;;;24.00;99.90;;;;;;5099717;28;20028;-75
2022/08/15 08:49:21;;;;;;;14.65;12.00;;;24.10;99.90;;;;;;5099174;28;20036;-75
2022/08/15 08:52:13;;;;;;;16.10;12.75;;;24.20;99.90;;;;;;5099399;28;20024;-75
2022/08/15 08:54:50;;;;;;;17.55;12.20;;;24.20;99.90;;;;;;5099724;28;20043;-75
2022/08/15 08:57:20;;;;;;;15.60;11.15;;;24.10;99.90;;;;;;5099513;28;20556;-75
2022/08/15 08:59:55;;;;;;;12.00;10.45;;;24.20;99.90;;;;;;5098263;28;20504;-75
2022/08/15 09:02:27;;;;;;;14.48;11.05;;;24.20;99.90;;;;;;5098124;28;20393;-75
2022/08/15 09:05:01;;;;;;;15.40;11.57;;;24.30;99.90;;;;;;5099442;28;20381;-74
2022/08/15 09:07:32;;;;;;;16.02;10.45;;;24.30;99.90;;;;;;5099453;28;20101;-75
2022/08/15 09:10:03;;;;;;;12.80;9.45;;;24.50;99.90;;;;;;5099655;28;20016;-75
2022/08/15 09:15:27;;;;;;;16.13;9.55;;;24.60;99.90;;;;;;5099525;28;20035;-75
2022/08/15 09:18:03;;;;;;;11.73;10.20;;;24.60;98.20;;;;;;5094878;28;20474;-75
2022/08/15 09:20:33;;;;;;;10.35;9.30;;;24.50;99.90;;;;;;5096071;28;20039;-75
2022/08/15 09:23:00;;;;;;;17.58;10.98;;;24.80;99.90;;;;;;5095961;28;20024;-75
2022/08/15 09:25:27;;;;;;;13.38;10.27;;;24.60;99.90;;;;;;5090749;28;20145;-75
2022/08/15 09:28:16;;;;;;;11.73;10.35;;;24.90;99.90;;;;;;5094823;28;20017;-75
2022/08/15 09:30:44;;;;;;;11.73;9.40;;;25.00;99.90;;;;;;5096504;28;20013;-75
2022/08/15 09:33:55;;;;;;;13.35;9.75;;;25.10;99.90;;;;;;5095936;28;20397;-75
2022/08/15 09:36:38;;;;;;;12.20;9.77;;;25.30;97.90;;;;;;5094947;28;20111;-75
2022/08/15 09:39:31;;;;;;;11.25;9.95;;;25.40;95.10;;;;;;5094686;28;20044;-75
2022/08/15 09:42:39;;;;;;;11.02;9.25;;;25.60;97.10;;;;;;5096133;28;20024;-75
2022/08/15 09:45:36;;;;;;;10.70;8.80;;;25.80;90.40;;;;;;5094712;28;20028;-75
2022/08/15 09:48:17;;;;;;;11.68;8.90;;;25.80;85.70;;;;;;5095630;28;20351;-75
2022/08/15 09:50:54;;;;;;;12.10;9.43;;;25.80;89.10;;;;;;5096035;28;20020;-75
2022/08/15 09:53:48;;;;;;;10.63;9.30;;;25.70;86.90;;;;;;5095773;28;20035;-75
2022/08/15 09:56:19;;;;;;;11.48;9.77;;;25.80;90.70;;;;;;5095791;28;20020;-75
2022/08/15 09:59:17;;;;;;;11.63;9.95;;;25.90;90.80;;;;;;5094398;28;20096;-75
2022/08/15 10:02:10;;;;;;;13.63;10.40;;;25.90;89.10;;;;;;5095331;28;20073;-75
2022/08/15 10:05:00;;;;;;;11.63;9.95;;;25.80;89.00;;;;;;5095377;28;20031;-75
2022/08/15 10:07:43;;;;;;;10.63;9.52;;;25.90;90.80;;;;;;5093171;28;20036;-75
2022/08/15 10:10:22;;;;;;;11.15;9.90;;;26.00;94.90;;;;;;5095494;28;20031;-75
2022/08/15 10:13:06;;;;;;;10.80;9.57;;;26.20;96.40;;;;;;5095710;28;20023;-75
2022/08/15 10:15:41;;;;;;;14.90;9.77;;;26.30;94.70;;;;;;5094079;28;20389;-75
2022/08/15 10:18:08;;;;;;;14.63;10.73;;;26.30;90.10;;;;;;5095365;28;20024;-75
2022/08/15 10:20:54;;;;;;;11.60;9.73;;;26.40;88.90;;;;;;5095037;28;20401;-75
2022/08/15 10:23:43;;;;;;;11.35;10.05;;;26.40;91.00;;;;;;5086947;28;20515;-75
2022/08/15 10:26:27;;;;;;;11.63;9.80;;;26.20;86.40;;;;;;5094803;28;20035;-75
2022/08/15 10:29:03;;;;;;;15.90;10.00;;;26.30;83.70;;;;;;5094796;28;20490;-75
2022/08/15 10:31:53;;;;;;;10.05;9.05;;;26.40;85.20;;;;;;5095036;28;20051;-75
2022/08/15 10:34:35;;;;;;;13.43;10.23;;;26.50;85.90;;;;;;5093822;28;20070;-75
2022/08/15 10:37:25;;;;;;;14.88;10.35;;;26.50;85.70;;;;;;5095039;28;20024;-75
2022/08/15 10:39:58;;;;;;;16.52;10.45;;;26.50;81.00;;;;;;5093440;28;20042;-75
2022/08/15 10:43:02;;;;;;;10.93;9.70;;;26.60;85.80;;;;;;5093681;28;20016;-75
2022/08/15 10:45:45;;;;;;;15.10;10.88;;;26.70;84.40;;;;;;5072391;28;20032;-75
2022/08/15 10:48:21;;;;;;;17.77;10.20;;;26.80;85.00;;;;;;5072342;28;20056;-75
2022/08/15 10:50:53;;;;;;;13.95;10.35;;;26.80;85.30;;;;;;5079183;28;20040;-75
2022/08/15 10:53:24;;;;;;;11.48;9.70;;;26.60;82.60;;;;;;5094393;28;20032;-75
2022/08/15 10:55:50;;;;;;;11.38;9.95;;;26.60;87.90;;;;;;5093264;28;20382;-76
2022/08/15 10:58:32;;;;;;;13.90;10.90;;;26.70;84.20;;;;;;5094531;28;20031;-75
2022/08/15 11:01:07;;;;;;;14.43;11.00;;;26.60;84.10;;;;;;5094483;28;20020;-75
2022/08/15 11:03:48;;;;;;;11.65;10.43;;;26.60;84.10;;;;;;5094487;28;20048;-75
2022/08/15 11:06:18;;;;;;;17.27;11.15;;;26.50;83.80;;;;;;5094720;28;20020;-75
2022/08/15 11:08:50;;;;;;;11.68;9.98;;;26.60;85.10;;;;;;5094489;28;20389;-75
2022/08/15 11:11:19;;;;;;;14.95;10.52;;;26.70;79.70;;;;;;5094269;28;20028;-75
2022/08/15 11:13:58;;;;;;;14.98;11.18;;;26.70;85.90;;;;;;5094340;28;20028;-75
2022/08/15 11:16:29;;;;;;;15.48;11.75;;;26.70;86.80;;;;;;5094280;28;20046;-75
2022/08/15 11:18:58;;;;;;;16.45;11.75;;;26.80;82.60;;;;;;5094028;28;20032;-75
2022/08/15 11:21:43;;;;;;;13.45;11.55;;;26.80;89.00;;;;;;5092752;28;20020;-75
2022/08/15 11:24:10;;;;;;;15.75;12.10;;;26.90;88.10;;;;;;5094151;28;20081;-75
2022/08/15 11:26:39;;;;;;;14.45;11.55;;;27.00;86.50;;;;;;5092611;28;20035;-75
2022/08/15 11:29:22;;;;;;;14.55;11.57;;;27.00;85.80;;;;;;5092797;28;20032;-75
2022/08/15 11:31:49;;;;;;;13.52;12.13;;;27.20;90.10;;;;;;5094122;28;20039;-75
2022/08/15 11:34:21;;;;;;;16.13;12.20;;;27.20;88.20;;;;;;5092703;28;20020;-75
2022/08/15 11:36:48;;;;;;;12.75;10.82;;;27.10;86.80;;;;;;5093651;28;20016;-75
2022/08/15 11:39:16;;;;;;;14.00;12.00;;;27.10;82.30;;;;;;5093290;28;20032;-75
2022/08/15 11:41:55;;;;;;;14.05;12.07;;;27.30;80.90;;;;;;5093582;28;20016;-75
2022/08/15 11:44:25;;;;;;;14.55;12.07;;;27.30;80.10;;;;;;5093866;28;20027;-75
2022/08/15 11:46:51;;;;;;;15.27;11.95;;;27.40;83.10;;;;;;5092294;28;20012;-75
2022/08/15 11:49:27;;;;;;;12.90;11.50;;;27.20;82.20;;;;;;5093857;28;20077;-75
2022/08/15 11:52:01;;;;;;;16.27;12.40;;;27.30;80.00;;;;;;5093526;28;20030;-75
2022/08/15 11:54:26;;;;;;;13.85;11.25;;;27.20;78.80;;;;;;5093754;28;20024;-75
2022/08/15 11:56:56;;;;;;;14.30;11.65;;;27.20;79.90;;;;;;5093731;28;20028;-75
2022/08/15 11:59:27;;;;;;;14.30;11.38;;;27.30;78.10;;;;;;5093534;28;20128;-75
2022/08/15 12:02:01;;;;;;;14.63;11.27;;;27.40;74.60;;;;;;5093563;28;20020;-75
2022/08/15 12:04:31;;;;;;;17.02;12.20;;;27.50;74.60;;;;;;5093618;28;20046;-75
2022/08/15 12:07:03;;;;;;;16.50;12.73;;;27.50;74.70;;;;;;5091974;28;20024;-74
2022/08/15 12:09:31;;;;;;;15.10;12.07;;;27.50;79.00;;;;;;5093804;28;20016;-75
2022/08/15 12:11:56;;;;;;;15.70;11.93;;;27.70;78.80;;;;;;5092356;28;20035;-75
2022/08/15 12:14:23;;;;;;;16.15;12.30;;;27.70;78.80;;;;;;5093509;28;20020;-75
2022/08/15 12:16:53;;;;;;;13.70;11.80;;;27.70;79.50;;;;;;5092097;28;20024;-75
2022/08/15 12:19:22;;;;;;;14.32;11.63;;;27.80;78.40;;;;;;5093481;28;20590;-75
2022/08/15 12:21:49;;;;;;;13.55;11.88;;;27.70;77.50;;;;;;5092330;28;20070;-75
2022/08/15 12:24:22;;;;;;;15.70;12.00;;;27.90;77.20;;;;;;5093168;28;20496;-75
2022/08/15 12:26:49;;;;;;;16.25;11.88;;;27.80;72.20;;;;;;5093325;28;20026;-75
2022/08/15 12:29:17;;;;;;;13.40;11.65;;;27.90;71.40;;;;;;5093386;28;20031;-74
2022/08/15 12:31:43;;;;;;;14.30;11.25;;;27.90;71.70;;;;;;5092116;28;20031;-74
2022/08/15 12:34:24;;;;;;;12.52;11.32;;;27.80;72.10;;;;;;5093389;28;20111;-75
2022/08/15 12:36:51;;;;;;;13.45;11.25;;;27.90;73.60;;;;;;5093444;28;20401;-75
2022/08/15 12:39:18;;;;;;;16.65;12.40;;;27.80;72.00;;;;;;5091874;28;20028;-75
2022/08/15 12:41:47;;;;;;;14.20;11.77;;;27.80;72.70;;;;;;5093436;28;20396;-75
2022/08/15 12:44:24;;;;;;;13.02;10.88;;;27.90;70.40;;;;;;5093130;28;20111;-74
2022/08/15 12:46:51;;;;;;;14.52;11.35;;;27.90;70.00;;;;;;5091692;28;20114;-75
2022/08/15 12:49:17;;;;;;;13.90;10.98;;;28.00;72.20;;;;;;5093276;28;20135;-75
2022/08/15 12:51:43;;;;;;;13.95;11.05;;;28.00;68.90;;;;;;5093683;28;20465;-75
2022/08/15 12:54:09;;;;;;;11.25;9.95;;;28.10;66.20;;;;;;5097211;28;20385;-74
2022/08/15 12:56:35;;;;;;;12.00;10.68;;;28.10;65.60;;;;;;5096780;28;20031;-74
2022/08/15 12:59:05;;;;;;;13.82;10.77;;;28.00;64.70;;;;;;5096851;28;20039;-75
2022/08/15 13:01:32;;;;;;;12.27;10.45;;;28.10;65.60;;;;;;5095339;28;20024;-74
2022/08/15 13:04:04;;;;;;;11.85;10.65;;;28.10;65.70;;;;;;5096600;28;20098;-74
2022/08/15 13:06:34;;;;;;;12.10;10.57;;;28.00;64.40;;;;;;5096506;28;20032;-75